X-preSS Monte Bianco — 9HA3446 — position and weather

sailwx.info

Track history (hours):
 
Tides and Currents Weather Stations Pressure Air Temp Water Temp Dewpoint Dewpoint Depression Visibility Wind Speed Wind Dir Waves Ship Positions

X-preSS Monte Bianco

Last reported at 2018-Jun-20 11:50 UTC. Time now 2018-Jun-20 20:37 UTC.
Position N 40°31' E 001°38'.

Length 130 m; draft 7.5 m.

Type: Cargo ship. MMSI: 229610000.

Date/timePositionNaut miles runAvg speedWind from/ knotsBaromVisibWave heightAir tempDewpointWater temp
2018-Jun-20 11:50N 40°31' E 001°38'411.9
2018-Jun-20 11:30N 40°34' E 001°41'2912.1
2018-Jun-20 09:06N 41°00' E 001°58'112.1
2018-Jun-20 09:00N 41°02' E 001°58'612.3
2018-Jun-20 08:30N 41°07' E 002°02'612.7
2018-Jun-20 08:00N 41°12' E 002°07'612.5
2018-Jun-20 07:30N 41°18' E 002°10'3 6.4
2018-Jun-20 06:59N 41°21' E 002°10'0 0.0
2018-Jun-20 06:29N 41°21' E 002°10'0 0.0
2018-Jun-20 05:59N 41°21' E 002°10'0 0.0
2018-Jun-20 05:30N 41°21' E 002°10'0 0.0
2018-Jun-20 05:00N 41°21' E 002°10'0 0.0
2018-Jun-20 04:30N 41°21' E 002°10'0 0.0
2018-Jun-20 03:48N 41°21' E 002°10'0 0.0
2018-Jun-20 03:22N 41°21' E 002°10'0 0.0
2018-Jun-20 02:52N 41°21' E 002°10'0 0.0
2018-Jun-20 02:22N 41°21' E 002°10'0 0.0
2018-Jun-20 01:55N 41°21' E 002°10'0 0.0
2018-Jun-20 01:28N 41°21' E 002°10'0 0.0
2018-Jun-20 01:00N 41°21' E 002°10'1 2.9
2018-Jun-20 00:31N 41°20' E 002°10'4 7.1
2018-Jun-20 00:01N 41°16' E 002°11'1 2.5
2018-Jun-19 23:30N 41°15' E 002°11'0 0.2
2018-Jun-19 23:01N 41°15' E 002°10'0 0.1
2018-Jun-19 22:30N 41°15' E 002°10'5 9.4
2018-Jun-19 22:01N 41°11' E 002°06'612.0
2018-Jun-19 21:31N 41°07' E 002°01'612.3
2018-Jun-19 21:00N 41°02' E 001°56'612.1
2018-Jun-19 20:28N 40°57' E 001°51'611.9
2018-Jun-19 20:00N 40°52' E 001°46'612.1
2018-Jun-19 19:31N 40°48' E 001°42'1112.3
2018-Jun-19 18:37N 40°39' E 001°32'212.6
2018-Jun-19 18:30N 40°38' E 001°31'9912.3
2018-Jun-19 10:26N 39°32' W 000°06'612.5
2018-Jun-19 10:00N 39°29' W 000°11'611.7
2018-Jun-19 09:30N 39°26' W 000°18'2 3.4
2018-Jun-19 09:00N 39°27' W 000°19'0 0.0
2018-Jun-19 08:30N 39°27' W 000°19'0 0.0
2018-Jun-19 08:00N 39°27' W 000°19'0 0.0
2018-Jun-19 07:30N 39°27' W 000°19'0 0.0
2018-Jun-19 07:00N 39°27' W 000°19'0 0.0
2018-Jun-19 06:30N 39°27' W 000°19'0 0.0
2018-Jun-19 06:00N 39°27' W 000°19'0 0.0
2018-Jun-19 05:27N 39°27' W 000°19'0 0.0
2018-Jun-19 05:00N 39°27' W 000°19'0 0.0
2018-Jun-19 04:30N 39°27' W 000°19'0 0.0
2018-Jun-19 04:00N 39°27' W 000°19'0 0.0
2018-Jun-19 03:30N 39°27' W 000°19'0 0.0
2018-Jun-19 00:24N 39°27' W 000°19'0 0.0
2018-Jun-19 00:00N 39°27' W 000°19'0 0.0
2018-Jun-18 23:30N 39°27' W 000°19'0 0.0
2018-Jun-18 23:00N 39°27' W 000°19'0 0.0
2018-Jun-18 22:30N 39°27' W 000°19'0 0.0
2018-Jun-18 21:57N 39°27' W 000°19'0 0.0
2018-Jun-18 21:30N 39°27' W 000°19'0 0.0
2018-Jun-18 20:24N 39°27' W 000°19'0 0.0
2018-Jun-18 19:53N 39°27' W 000°19'1 1.1
2018-Jun-18 18:53N 39°26' W 000°19'0 0.0
2018-Jun-18 11:23N 39°26' W 000°19'1 3.2
2018-Jun-18 10:58N 39°26' W 000°18'43 3.6
2018-Jun-17 22:57N 38°52' E 000°17'18 7.6
2018-Jun-17 20:33N 38°34' E 000°21'4 9.5
2018-Jun-17 20:08N 38°31' E 000°18'12 9.5
2018-Jun-17 18:50N 38°20' E 000°09'4 9.5
2018-Jun-17 18:26N 38°17' E 000°07'4 9.3
2018-Jun-17 17:57N 38°13' E 000°04'4 9.3
2018-Jun-17 17:30N 38°10' E 000°01'5 9.2
2018-Jun-17 17:00N 38°06' W 000°03'5 9.0
2018-Jun-17 16:30N 38°03' W 000°06'5 9.4
2018-Jun-17 16:00N 37°58' W 000°09'5 9.4
2018-Jun-17 15:29N 37°55' W 000°13'5 9.1
2018-Jun-17 15:00N 37°51' W 000°16'5 8.9
2018-Jun-17 14:28N 37°47' W 000°19'4 8.8
2018-Jun-17 14:00N 37°43' W 000°22'4 8.8
2018-Jun-17 13:30N 37°40' W 000°25'4 8.8
2018-Jun-17 13:00N 37°36' W 000°28'4 9.0
2018-Jun-17 12:31N 37°33' W 000°31'5 9.2
2018-Jun-17 12:00N 37°30' W 000°36'5 9.2
2018-Jun-17 11:29N 37°26' W 000°40'5 9.1
2018-Jun-17 10:56N 37°23' W 000°45'4 8.7
2018-Jun-17 10:29N 37°20' W 000°49'4 8.5
2018-Jun-17 10:00N 37°18' W 000°53'5 8.5
2018-Jun-17 09:27N 37°15' W 000°57'4 8.7
2018-Jun-17 09:00N 37°12' W 001°01'4 8.6
2018-Jun-17 08:30N 37°09' W 001°05'4 8.8
2018-Jun-17 08:00N 37°06' W 001°09'1910.0
2018-Jun-17 06:07N 36°54' W 001°27'19111.9
2018-Jun-16 14:05N 36°01' W 005°15'113.2
2018-Jun-16 14:00N 36°01' W 005°16'712.0
2018-Jun-16 13:27N 36°05' W 005°23'5 0.8
2018-Jun-16 06:18N 36°09' W 005°26'0 0.1
2018-Jun-16 05:42N 36°09' W 005°26'0 0.1
2018-Jun-16 05:12N 36°09' W 005°26'0 0.1
2018-Jun-16 04:54N 36°09' W 005°26'0 0.1
2018-Jun-16 04:12N 36°09' W 005°26'0 0.1
2018-Jun-16 03:54N 36°09' W 005°26'0 0.0
2018-Jun-16 03:12N 36°10' W 005°26'0 0.0
2018-Jun-16 03:00N 36°10' W 005°26'0 0.0
2018-Jun-16 02:18N 36°10' W 005°26'0 0.1
2018-Jun-16 02:00N 36°10' W 005°26'0 0.1
2018-Jun-16 01:30N 36°10' W 005°26'0 0.1
2018-Jun-16 01:00N 36°10' W 005°26'0 0.0
2018-Jun-16 00:30N 36°10' W 005°26'0 0.2
2018-Jun-15 23:42N 36°09' W 005°26'0 0.1
2018-Jun-15 23:27N 36°09' W 005°26'0 0.0
2018-Jun-15 21:24N 36°09' W 005°26'0 0.0
2018-Jun-15 20:48N 36°09' W 005°26'0 0.2
2018-Jun-15 20:30N 36°09' W 005°26'0 0.1
2018-Jun-15 19:48N 36°10' W 005°26'0 0.1
2018-Jun-15 19:30N 36°10' W 005°26'0 0.0
2018-Jun-15 19:00N 36°10' W 005°26'0 0.1
2018-Jun-15 18:24N 36°10' W 005°26'0 0.1
2018-Jun-15 17:42N 36°10' W 005°26'0 1.2
2018-Jun-15 17:30N 36°09' W 005°25'2 4.0
2018-Jun-15 17:00N 36°08' W 005°24'5 9.4
2018-Jun-15 16:31N 36°04' W 005°20'2 4.1
2018-Jun-15 16:00N 36°03' W 005°18'0 0.8
2018-Jun-15 15:31N 36°04' W 005°17'1 1.7
2018-Jun-15 15:01N 36°03' W 005°18'1 2.6
2018-Jun-15 14:31N 36°02' W 005°20'0 0.9
2018-Jun-15 14:01N 36°03' W 005°19'1 1.3
2018-Jun-15 13:31N 36°03' W 005°19'1 1.3
2018-Jun-15 13:01N 36°04' W 005°18'2 2.9
2018-Jun-15 12:21N 36°03' W 005°20'0 1.0
2018-Jun-15 12:00N 36°03' W 005°20'1 1.2
2018-Jun-15 11:30N 36°03' W 005°19'1 1.1
2018-Jun-15 11:00N 36°03' W 005°19'2 3.7
2018-Jun-15 10:30N 36°02' W 005°18'1 2.7
2018-Jun-15 10:01N 36°02' W 005°19'1 2.0
2018-Jun-15 09:30N 36°03' W 005°20'0 0.6
2018-Jun-15 09:01N 36°03' W 005°20'1 1.5
2018-Jun-15 08:31N 36°03' W 005°19'1 2.0
2018-Jun-15 08:01N 36°03' W 005°18'2 4.0
2018-Jun-15 07:30N 36°03' W 005°20'1 1.9
2018-Jun-15 07:01N 36°03' W 005°19'1 1.6
2018-Jun-15 06:30N 36°03' W 005°18'1 1.5
2018-Jun-15 06:00N 36°04' W 005°19'0 0.4
2018-Jun-15 05:31N 36°04' W 005°19'1 1.3
2018-Jun-15 05:01N 36°03' W 005°18'0 0.9
2018-Jun-15 04:31N 36°03' W 005°17'0 0.2
2018-Jun-15 04:00N 36°03' W 005°17'2 4.1
2018-Jun-15 03:31N 36°03' W 005°20'0 0.9
2018-Jun-15 03:00N 36°03' W 005°20'0 0.8
2018-Jun-15 02:31N 36°03' W 005°19'0 0.9
2018-Jun-15 02:01N 36°03' W 005°19'0 0.7
2018-Jun-15 01:31N 36°03' W 005°18'1 1.8
2018-Jun-15 01:00N 36°04' W 005°19'1 1.8
2018-Jun-15 00:31N 36°04' W 005°20'1 1.2
2018-Jun-15 00:00N 36°03' W 005°20'0 0.7
2018-Jun-14 23:30N 36°03' W 005°19'0 0.6
2018-Jun-14 23:01N 36°04' W 005°19'4 8.7
2018-Jun-14 22:30N 36°01' W 005°24'611.8
2018-Jun-14 22:00N 35°57' W 005°29'  
2018-Jun-11 04:06N 37°32' W 009°37'111.4
2018-Jun-11 04:00N 37°33' W 009°37'1411.3
2018-Jun-11 02:46N 37°46' W 009°34'311.4
2018-Jun-11 02:30N 37°49' W 009°33'611.3
2018-Jun-11 02:00N 37°55' W 009°32'611.2
2018-Jun-11 01:30N 38°00' W 009°31'611.4
2018-Jun-11 01:00N 38°06' W 009°30'611.5
2018-Jun-11 00:30N 38°12' W 009°28'611.4
2018-Jun-11 00:00N 38°17' W 009°27'611.4
2018-Jun-10 23:30N 38°23' W 009°26'611.2
2018-Jun-10 23:00N 38°29' W 009°25'611.5
2018-Jun-10 22:30N 38°34' W 009°23'610.7
2018-Jun-10 22:00N 38°39' W 009°20'4 8.9
2018-Jun-10 21:30N 38°41' W 009°15'4 8.1
2018-Jun-10 21:00N 38°42' W 009°10'0 0.2
2018-Jun-10 20:25N 38°42' W 009°10'0 0.0
2018-Jun-10 19:58N 38°42' W 009°10'0 0.0
2018-Jun-10 19:28N 38°42' W 009°10'0 0.0
2018-Jun-10 18:37N 38°42' W 009°10'0 0.0
2018-Jun-10 18:10N 38°42' W 009°10'0 0.0
2018-Jun-10 16:46N 38°42' W 009°10'0 0.0
2018-Jun-10 16:28N 38°42' W 009°10'0 0.0
2018-Jun-10 15:53N 38°42' W 009°10'0 0.0
2018-Jun-10 15:25N 38°42' W 009°10'0 0.0
2018-Jun-10 14:01N 38°42' W 009°10'0 0.0
2018-Jun-10 12:58N 38°42' W 009°10'0 0.0
2018-Jun-10 12:28N 38°42' W 009°10'  
Track history (hours):
 
Tides and Currents Weather Stations Pressure Air Temp Water Temp Dewpoint Dewpoint Depression Visibility Wind Speed Wind Dir Waves Ship Positions

X-preSS Monte Bianco

Last reported at 2018-Jun-20 11:50 UTC. Time now 2018-Jun-20 20:37 UTC.
Position N 40°31' E 001°38'.

Length 130 m; draft 7.5 m.

Type: Cargo ship. MMSI: 229610000.

Date/timePositionNaut miles runAvg speedWind from/ knotsBaromVisibWave heightAir tempDewpointWater temp
2018-Jun-20 11:50N 40°31' E 001°38'411.9
2018-Jun-20 11:30N 40°34' E 001°41'2912.1
2018-Jun-20 09:06N 41°00' E 001°58'112.1
2018-Jun-20 09:00N 41°02' E 001°58'612.3
2018-Jun-20 08:30N 41°07' E 002°02'612.7
2018-Jun-20 08:00N 41°12' E 002°07'612.5
2018-Jun-20 07:30N 41°18' E 002°10'3 6.4
2018-Jun-20 06:59N 41°21' E 002°10'0 0.0
2018-Jun-20 06:29N 41°21' E 002°10'0 0.0
2018-Jun-20 05:59N 41°21' E 002°10'0 0.0
2018-Jun-20 05:30N 41°21' E 002°10'0 0.0
2018-Jun-20 05:00N 41°21' E 002°10'0 0.0
2018-Jun-20 04:30N 41°21' E 002°10'0 0.0
2018-Jun-20 03:48N 41°21' E 002°10'0 0.0
2018-Jun-20 03:22N 41°21' E 002°10'0 0.0
2018-Jun-20 02:52N 41°21' E 002°10'0 0.0
2018-Jun-20 02:22N 41°21' E 002°10'0 0.0
2018-Jun-20 01:55N 41°21' E 002°10'0 0.0
2018-Jun-20 01:28N 41°21' E 002°10'0 0.0
2018-Jun-20 01:00N 41°21' E 002°10'1 2.9
2018-Jun-20 00:31N 41°20' E 002°10'4 7.1
2018-Jun-20 00:01N 41°16' E 002°11'1 2.5
2018-Jun-19 23:30N 41°15' E 002°11'0 0.2
2018-Jun-19 23:01N 41°15' E 002°10'0 0.1
2018-Jun-19 22:30N 41°15' E 002°10'5 9.4
2018-Jun-19 22:01N 41°11' E 002°06'612.0
2018-Jun-19 21:31N 41°07' E 002°01'612.3
2018-Jun-19 21:00N 41°02' E 001°56'612.1
2018-Jun-19 20:28N 40°57' E 001°51'611.9
2018-Jun-19 20:00N 40°52' E 001°46'612.1
2018-Jun-19 19:31N 40°48' E 001°42'1112.3
2018-Jun-19 18:37N 40°39' E 001°32'212.6
2018-Jun-19 18:30N 40°38' E 001°31'9912.3
2018-Jun-19 10:26N 39°32' W 000°06'612.5
2018-Jun-19 10:00N 39°29' W 000°11'611.7
2018-Jun-19 09:30N 39°26' W 000°18'2 3.4
2018-Jun-19 09:00N 39°27' W 000°19'0 0.0
2018-Jun-19 08:30N 39°27' W 000°19'0 0.0
2018-Jun-19 08:00N 39°27' W 000°19'0 0.0
2018-Jun-19 07:30N 39°27' W 000°19'0 0.0
2018-Jun-19 07:00N 39°27' W 000°19'0 0.0
2018-Jun-19 06:30N 39°27' W 000°19'0 0.0
2018-Jun-19 06:00N 39°27' W 000°19'0 0.0
2018-Jun-19 05:27N 39°27' W 000°19'0 0.0
2018-Jun-19 05:00N 39°27' W 000°19'0 0.0
2018-Jun-19 04:30N 39°27' W 000°19'0 0.0
2018-Jun-19 04:00N 39°27' W 000°19'0 0.0
2018-Jun-19 03:30N 39°27' W 000°19'0 0.0
2018-Jun-19 00:24N 39°27' W 000°19'0 0.0
2018-Jun-19 00:00N 39°27' W 000°19'0 0.0
2018-Jun-18 23:30N 39°27' W 000°19'0 0.0
2018-Jun-18 23:00N 39°27' W 000°19'0 0.0
2018-Jun-18 22:30N 39°27' W 000°19'0 0.0
2018-Jun-18 21:57N 39°27' W 000°19'0 0.0
2018-Jun-18 21:30N 39°27' W 000°19'0 0.0
2018-Jun-18 20:24N 39°27' W 000°19'0 0.0
2018-Jun-18 19:53N 39°27' W 000°19'1 1.1
2018-Jun-18 18:53N 39°26' W 000°19'0 0.0
2018-Jun-18 11:23N 39°26' W 000°19'1 3.2
2018-Jun-18 10:58N 39°26' W 000°18'43 3.6
2018-Jun-17 22:57N 38°52' E 000°17'18 7.6
2018-Jun-17 20:33N 38°34' E 000°21'4 9.5
2018-Jun-17 20:08N 38°31' E 000°18'12 9.5
2018-Jun-17 18:50N 38°20' E 000°09'4 9.5
2018-Jun-17 18:26N 38°17' E 000°07'4 9.3
2018-Jun-17 17:57N 38°13' E 000°04'4 9.3
2018-Jun-17 17:30N 38°10' E 000°01'5 9.2
2018-Jun-17 17:00N 38°06' W 000°03'5 9.0
2018-Jun-17 16:30N 38°03' W 000°06'5 9.4
2018-Jun-17 16:00N 37°58' W 000°09'5 9.4
2018-Jun-17 15:29N 37°55' W 000°13'5 9.1
2018-Jun-17 15:00N 37°51' W 000°16'5 8.9
2018-Jun-17 14:28N 37°47' W 000°19'4 8.8
2018-Jun-17 14:00N 37°43' W 000°22'4 8.8
2018-Jun-17 13:30N 37°40' W 000°25'4 8.8
2018-Jun-17 13:00N 37°36' W 000°28'4 9.0
2018-Jun-17 12:31N 37°33' W 000°31'5 9.2
2018-Jun-17 12:00N 37°30' W 000°36'5 9.2
2018-Jun-17 11:29N 37°26' W 000°40'5 9.1
2018-Jun-17 10:56N 37°23' W 000°45'4 8.7
2018-Jun-17 10:29N 37°20' W 000°49'4 8.5
2018-Jun-17 10:00N 37°18' W 000°53'5 8.5
2018-Jun-17 09:27N 37°15' W 000°57'4 8.7
2018-Jun-17 09:00N 37°12' W 001°01'4 8.6
2018-Jun-17 08:30N 37°09' W 001°05'4 8.8
2018-Jun-17 08:00N 37°06' W 001°09'1910.0
2018-Jun-17 06:07N 36°54' W 001°27'19111.9
2018-Jun-16 14:05N 36°01' W 005°15'113.2
2018-Jun-16 14:00N 36°01' W 005°16'712.0
2018-Jun-16 13:27N 36°05' W 005°23'5 0.8
2018-Jun-16 06:18N 36°09' W 005°26'0 0.1
2018-Jun-16 05:42N 36°09' W 005°26'0 0.1
2018-Jun-16 05:12N 36°09' W 005°26'0 0.1
2018-Jun-16 04:54N 36°09' W 005°26'0 0.1
2018-Jun-16 04:12N 36°09' W 005°26'0 0.1
2018-Jun-16 03:54N 36°09' W 005°26'0 0.0
2018-Jun-16 03:12N 36°10' W 005°26'0 0.0
2018-Jun-16 03:00N 36°10' W 005°26'0 0.0
2018-Jun-16 02:18N 36°10' W 005°26'0 0.1
2018-Jun-16 02:00N 36°10' W 005°26'0 0.1
2018-Jun-16 01:30N 36°10' W 005°26'0 0.1
2018-Jun-16 01:00N 36°10' W 005°26'0 0.0
2018-Jun-16 00:30N 36°10' W 005°26'0 0.2
2018-Jun-15 23:42N 36°09' W 005°26'0 0.1
2018-Jun-15 23:27N 36°09' W 005°26'0 0.0
2018-Jun-15 21:24N 36°09' W 005°26'0 0.0
2018-Jun-15 20:48N 36°09' W 005°26'0 0.2
2018-Jun-15 20:30N 36°09' W 005°26'0 0.1
2018-Jun-15 19:48N 36°10' W 005°26'0 0.1
2018-Jun-15 19:30N 36°10' W 005°26'0 0.0
2018-Jun-15 19:00N 36°10' W 005°26'0 0.1
2018-Jun-15 18:24N 36°10' W 005°26'0 0.1
2018-Jun-15 17:42N 36°10' W 005°26'0 1.2
2018-Jun-15 17:30N 36°09' W 005°25'2 4.0
2018-Jun-15 17:00N 36°08' W 005°24'5 9.4
2018-Jun-15 16:31N 36°04' W 005°20'2 4.1
2018-Jun-15 16:00N 36°03' W 005°18'0 0.8
2018-Jun-15 15:31N 36°04' W 005°17'1 1.7
2018-Jun-15 15:01N 36°03' W 005°18'1 2.6
2018-Jun-15 14:31N 36°02' W 005°20'0 0.9
2018-Jun-15 14:01N 36°03' W 005°19'1 1.3
2018-Jun-15 13:31N 36°03' W 005°19'1 1.3
2018-Jun-15 13:01N 36°04' W 005°18'2 2.9
2018-Jun-15 12:21N 36°03' W 005°20'0 1.0
2018-Jun-15 12:00N 36°03' W 005°20'1 1.2
2018-Jun-15 11:30N 36°03' W 005°19'1 1.1
2018-Jun-15 11:00N 36°03' W 005°19'2 3.7
2018-Jun-15 10:30N 36°02' W 005°18'1 2.7
2018-Jun-15 10:01N 36°02' W 005°19'1 2.0
2018-Jun-15 09:30N 36°03' W 005°20'0 0.6
2018-Jun-15 09:01N 36°03' W 005°20'1 1.5
2018-Jun-15 08:31N 36°03' W 005°19'1 2.0
2018-Jun-15 08:01N 36°03' W 005°18'2 4.0
2018-Jun-15 07:30N 36°03' W 005°20'1 1.9
2018-Jun-15 07:01N 36°03' W 005°19'1 1.6
2018-Jun-15 06:30N 36°03' W 005°18'1 1.5
2018-Jun-15 06:00N 36°04' W 005°19'0 0.4
2018-Jun-15 05:31N 36°04' W 005°19'1 1.3
2018-Jun-15 05:01N 36°03' W 005°18'0 0.9
2018-Jun-15 04:31N 36°03' W 005°17'0 0.2
2018-Jun-15 04:00N 36°03' W 005°17'2 4.1
2018-Jun-15 03:31N 36°03' W 005°20'0 0.9
2018-Jun-15 03:00N 36°03' W 005°20'0 0.8
2018-Jun-15 02:31N 36°03' W 005°19'0 0.9
2018-Jun-15 02:01N 36°03' W 005°19'0 0.7
2018-Jun-15 01:31N 36°03' W 005°18'1 1.8
2018-Jun-15 01:00N 36°04' W 005°19'1 1.8
2018-Jun-15 00:31N 36°04' W 005°20'1 1.2
2018-Jun-15 00:00N 36°03' W 005°20'0 0.7
2018-Jun-14 23:30N 36°03' W 005°19'0 0.6
2018-Jun-14 23:01N 36°04' W 005°19'4 8.7
2018-Jun-14 22:30N 36°01' W 005°24'611.8
2018-Jun-14 22:00N 35°57' W 005°29'  
2018-Jun-11 04:06N 37°32' W 009°37'111.4
2018-Jun-11 04:00N 37°33' W 009°37'1411.3
2018-Jun-11 02:46N 37°46' W 009°34'311.4
2018-Jun-11 02:30N 37°49' W 009°33'611.3
2018-Jun-11 02:00N 37°55' W 009°32'611.2
2018-Jun-11 01:30N 38°00' W 009°31'611.4
2018-Jun-11 01:00N 38°06' W 009°30'611.5
2018-Jun-11 00:30N 38°12' W 009°28'611.4
2018-Jun-11 00:00N 38°17' W 009°27'611.4
2018-Jun-10 23:30N 38°23' W 009°26'611.2
2018-Jun-10 23:00N 38°29' W 009°25'611.5
2018-Jun-10 22:30N 38°34' W 009°23'610.7
2018-Jun-10 22:00N 38°39' W 009°20'4 8.9
2018-Jun-10 21:30N 38°41' W 009°15'4 8.1
2018-Jun-10 21:00N 38°42' W 009°10'0 0.2
2018-Jun-10 20:25N 38°42' W 009°10'0 0.0
2018-Jun-10 19:58N 38°42' W 009°10'0 0.0
2018-Jun-10 19:28N 38°42' W 009°10'0 0.0
2018-Jun-10 18:37N 38°42' W 009°10'0 0.0
2018-Jun-10 18:10N 38°42' W 009°10'0 0.0
2018-Jun-10 16:46N 38°42' W 009°10'0 0.0
2018-Jun-10 16:28N 38°42' W 009°10'0 0.0
2018-Jun-10 15:53N 38°42' W 009°10'0 0.0
2018-Jun-10 15:25N 38°42' W 009°10'0 0.0
2018-Jun-10 14:01N 38°42' W 009°10'0 0.0
2018-Jun-10 12:58N 38°42' W 009°10'0 0.0
2018-Jun-10 12:28N 38°42' W 009°10'  

Dump ship's entire track history